createdAt,value
2019-03-15T00:01:14.453Z,83.10
2019-03-15T00:03:41.902Z,83.50
2019-03-15T00:06:09.440Z,84.20
2019-03-15T00:08:36.820Z,83.10
2019-03-15T00:11:04.566Z,82.80
2019-03-15T00:13:32.034Z,83.30
2019-03-15T00:15:59.422Z,83.10
2019-03-15T00:18:27.997Z,82.90
2019-03-15T00:20:55.282Z,83.00
2019-03-15T00:23:22.713Z,82.30
2019-03-15T00:25:50.206Z,82.70
2019-03-15T00:28:17.632Z,82.80
2019-03-15T00:30:45.028Z,83.30
2019-03-15T00:33:12.550Z,83.40
2019-03-15T00:35:40.094Z,84.00
2019-03-15T00:38:07.525Z,83.60
2019-03-15T00:40:34.966Z,83.40
2019-03-15T00:43:02.339Z,83.20
2019-03-15T00:45:29.830Z,82.80
2019-03-15T00:47:57.247Z,83.90
2019-03-15T00:50:24.507Z,84.00
2019-03-15T00:52:51.957Z,83.50
2019-03-15T00:55:19.749Z,83.50
2019-03-15T00:57:47.310Z,83.30
2019-03-15T01:00:16.574Z,83.20
2019-03-15T01:02:44.445Z,83.40
2019-03-15T01:05:12.512Z,83.30
2019-03-15T01:07:39.841Z,84.40
2019-03-15T01:10:07.948Z,83.40
2019-03-15T01:12:35.313Z,84.10
2019-03-15T01:15:02.969Z,83.60
2019-03-15T01:17:31.413Z,83.50
2019-03-15T01:19:58.851Z,83.50
2019-03-15T01:22:26.190Z,83.60
2019-03-15T01:24:53.642Z,83.70
2019-03-15T01:27:22.849Z,83.90
2019-03-15T01:29:50.203Z,84.20
2019-03-15T01:32:17.510Z,84.10
2019-03-15T01:34:44.937Z,84.60
2019-03-15T01:37:12.371Z,84.40
2019-03-15T01:39:39.677Z,84.90
2019-03-15T01:42:06.981Z,85.30
2019-03-15T01:44:34.291Z,85.00
2019-03-15T01:47:01.746Z,84.20
2019-03-15T01:49:29.123Z,84.50
2019-03-15T01:51:56.577Z,84.10
2019-03-15T01:54:23.939Z,84.30
2019-03-15T01:56:51.507Z,84.30
2019-03-15T01:59:19.017Z,84.70
2019-03-15T02:01:46.429Z,84.40
2019-03-15T02:04:13.797Z,84.20
2019-03-15T02:06:41.254Z,84.30
2019-03-15T02:09:09.443Z,83.90
2019-03-15T02:11:36.935Z,83.70
2019-03-15T02:14:04.382Z,84.20
2019-03-15T02:16:31.897Z,84.20
2019-03-15T02:18:59.355Z,84.50
2019-03-15T02:21:27.925Z,84.20
2019-03-15T02:23:55.347Z,84.70
2019-03-15T02:26:22.945Z,84.80
2019-03-15T02:28:50.520Z,84.60
2019-03-15T02:31:17.988Z,84.50
2019-03-15T02:33:45.433Z,85.20
2019-03-15T02:36:13.940Z,83.90
2019-03-15T02:38:41.748Z,84.20
2019-03-15T02:41:09.047Z,84.60
2019-03-15T02:43:36.438Z,85.00
2019-03-15T02:46:03.760Z,84.80
2019-03-15T02:48:31.206Z,85.00
2019-03-15T02:50:58.637Z,84.40
2019-03-15T02:53:26.102Z,84.50
2019-03-15T02:55:53.570Z,84.70
2019-03-15T02:58:21.063Z,84.10
2019-03-15T03:00:48.386Z,83.60
2019-03-15T03:03:15.726Z,84.10
2019-03-15T03:05:43.117Z,84.20
2019-03-15T03:08:11.606Z,84.60
2019-03-15T03:10:39.138Z,84.60
2019-03-15T03:13:06.421Z,84.90
2019-03-15T03:15:33.891Z,84.60
2019-03-15T03:18:01.408Z,84.90
2019-03-15T03:20:29.012Z,85.00
2019-03-15T03:22:56.399Z,85.00
2019-03-15T03:25:23.832Z,85.40
2019-03-15T03:27:51.243Z,85.20
2019-03-15T03:30:18.669Z,84.80
2019-03-15T03:32:46.060Z,85.10
2019-03-15T03:35:13.516Z,85.30
2019-03-15T03:37:40.968Z,85.50
2019-03-15T03:40:09.509Z,85.30
2019-03-15T03:42:36.957Z,85.40
2019-03-15T03:45:04.810Z,85.90
2019-03-15T03:47:32.814Z,86.10
2019-03-15T03:50:00.616Z,85.70
2019-03-15T03:52:28.046Z,86.20
2019-03-15T03:54:55.672Z,86.50
2019-03-15T03:57:23.119Z,86.90
2019-03-15T03:59:50.520Z,86.80
2019-03-15T04:02:17.838Z,87.00
2019-03-15T04:04:46.534Z,86.70
2019-03-15T04:07:14.360Z,86.00
2019-03-15T04:09:41.788Z,86.40
2019-03-15T04:12:09.211Z,86.00
2019-03-15T04:14:36.616Z,85.80
2019-03-15T04:17:05.010Z,85.90
2019-03-15T04:19:32.345Z,85.60
2019-03-15T04:21:59.765Z,85.70
2019-03-15T04:24:27.196Z,85.00
2019-03-15T04:26:54.464Z,84.70
2019-03-15T04:29:21.844Z,84.90
2019-03-15T04:31:49.237Z,85.00
2019-03-15T04:34:16.713Z,84.70
2019-03-15T04:36:44.140Z,84.80
2019-03-15T04:39:13.999Z,84.60
2019-03-15T04:41:40.778Z,85.00
2019-03-15T04:44:08.312Z,85.10
2019-03-15T04:46:36.798Z,84.90
2019-03-15T04:49:05.302Z,85.20
2019-03-15T04:51:32.743Z,84.50
2019-03-15T04:54:00.040Z,84.70
2019-03-15T04:56:29.095Z,84.70
2019-03-15T04:58:56.505Z,84.50
2019-03-15T05:01:23.899Z,84.60
2019-03-15T05:03:51.328Z,84.90
2019-03-15T05:06:18.600Z,85.30
2019-03-15T05:08:46.035Z,84.90
2019-03-15T05:11:13.289Z,85.20
2019-03-15T05:13:40.625Z,85.40
2019-03-15T05:16:07.932Z,85.10
2019-03-15T05:18:35.273Z,84.50
2019-03-15T05:21:03.745Z,84.20
2019-03-15T05:23:31.168Z,84.50
2019-03-15T05:25:58.577Z,84.80
2019-03-15T05:28:25.909Z,83.90
2019-03-15T05:30:53.331Z,83.90
2019-03-15T05:33:20.711Z,84.00
2019-03-15T05:35:48.111Z,83.60
2019-03-15T05:38:15.497Z,83.50
2019-03-15T05:40:42.947Z,83.90
2019-03-15T05:43:10.389Z,83.90
2019-03-15T05:45:37.795Z,84.10
2019-03-15T05:48:05.206Z,84.90
2019-03-15T05:50:32.593Z,83.80
2019-03-15T05:52:59.954Z,83.30
2019-03-15T05:55:27.394Z,83.30
2019-03-15T05:57:54.868Z,83.30
2019-03-15T06:00:22.211Z,82.70
2019-03-15T06:02:49.621Z,82.80
2019-03-15T06:05:16.937Z,81.60
2019-03-15T06:07:44.307Z,82.20
2019-03-15T06:10:11.724Z,82.00
2019-03-15T06:12:39.131Z,82.10
2019-03-15T06:15:06.613Z,82.00
2019-03-15T06:17:34.043Z,82.10
2019-03-15T06:20:01.445Z,82.20
2019-03-15T06:22:28.869Z,82.70
2019-03-15T06:24:56.165Z,83.10
2019-03-15T06:27:23.609Z,82.70
2019-03-15T06:29:51.012Z,82.90
2019-03-15T06:32:18.492Z,83.20
2019-03-15T06:34:47.732Z,82.50
2019-03-15T06:37:15.048Z,82.80
2019-03-15T06:39:42.380Z,82.80
2019-03-15T06:42:09.779Z,82.70
2019-03-15T06:44:37.817Z,82.30
2019-03-15T06:47:05.304Z,81.30
2019-03-15T06:49:32.650Z,81.50
2019-03-15T06:52:00.032Z,81.70
2019-03-15T06:54:27.548Z,81.00
2019-03-15T06:56:54.938Z,81.50
2019-03-15T06:59:22.628Z,81.80
2019-03-15T07:01:50.668Z,82.60
2019-03-15T07:04:18.238Z,82.70
2019-03-15T07:06:45.672Z,83.20
2019-03-15T07:09:13.018Z,83.70
2019-03-15T07:11:41.459Z,83.30
2019-03-15T07:14:08.766Z,82.60
2019-03-15T07:16:38.147Z,82.40
2019-03-15T07:19:05.356Z,81.70
2019-03-15T07:21:32.755Z,81.70
2019-03-15T07:24:00.017Z,82.30
2019-03-15T07:26:27.473Z,83.30
2019-03-15T07:28:54.973Z,82.90
2019-03-15T07:31:22.388Z,83.50
2019-03-15T07:33:49.870Z,84.10
2019-03-15T07:36:18.264Z,83.30
2019-03-15T07:38:45.824Z,84.40
2019-03-15T07:41:13.317Z,84.40
2019-03-15T07:43:40.714Z,84.40
2019-03-15T07:46:08.120Z,84.60
2019-03-15T07:48:35.544Z,84.70
2019-03-15T07:51:02.863Z,84.60
2019-03-15T07:53:31.266Z,84.60
2019-03-15T07:55:58.607Z,85.10
2019-03-15T07:58:26.072Z,84.20
2019-03-15T08:00:53.361Z,84.20
2019-03-15T08:03:20.732Z,84.30
2019-03-15T08:05:48.108Z,84.00
2019-03-15T08:08:15.681Z,84.70
2019-03-15T08:10:42.969Z,86.20
2019-03-15T08:13:10.330Z,85.90
2019-03-15T08:15:37.801Z,85.40
2019-03-15T08:18:05.225Z,85.10
2019-03-15T08:20:33.507Z,85.70
2019-03-15T08:23:00.819Z,86.30
2019-03-15T08:25:28.169Z,86.70
2019-03-15T08:27:55.615Z,87.50
2019-03-15T08:30:23.973Z,88.40
2019-03-15T08:32:52.882Z,89.30
2019-03-15T08:35:20.283Z,89.40
2019-03-15T08:37:47.694Z,89.20
2019-03-15T08:40:17.021Z,89.20
2019-03-15T08:42:44.473Z,88.60
2019-03-15T08:45:12.602Z,89.50
2019-03-15T08:47:40.209Z,89.40
2019-03-15T08:50:09.606Z,89.50
2019-03-15T08:52:36.997Z,89.50
2019-03-15T08:55:05.873Z,90.00
2019-03-15T08:57:33.458Z,90.40
2019-03-15T09:00:00.775Z,90.50
2019-03-15T09:02:28.071Z,90.30
2019-03-15T09:04:55.662Z,90.60
2019-03-15T09:07:23.094Z,90.60
2019-03-15T09:09:50.513Z,90.60
2019-03-15T09:12:18.293Z,90.50
2019-03-15T09:14:45.644Z,90.80
2019-03-15T09:17:13.124Z,91.20
2019-03-15T09:19:41.639Z,90.90
2019-03-15T09:22:09.119Z,91.20
2019-03-15T09:24:36.391Z,91.30
2019-03-15T09:27:03.719Z,91.10
2019-03-15T09:29:31.116Z,91.00
2019-03-15T09:32:06.173Z,91.00
2019-03-15T09:34:28.807Z,91.00
2019-03-15T09:36:56.230Z,91.10
2019-03-15T09:39:23.637Z,91.10
2019-03-15T09:41:50.941Z,91.30
2019-03-15T09:44:18.347Z,91.40
2019-03-15T09:46:45.645Z,91.50
2019-03-15T09:49:13.075Z,91.20
2019-03-15T09:51:40.348Z,91.10
2019-03-15T09:54:07.728Z,91.20
2019-03-15T09:56:35.261Z,91.50
2019-03-15T09:59:03.691Z,91.40
2019-03-15T10:01:35.074Z,91.20
2019-03-15T10:04:02.214Z,91.20
2019-03-15T10:06:29.503Z,90.90
2019-03-15T10:08:56.915Z,91.10
2019-03-15T10:11:24.313Z,91.30
2019-03-15T10:13:51.669Z,91.10
2019-03-15T10:16:18.966Z,91.20
2019-03-15T10:18:46.415Z,91.10
2019-03-15T10:21:13.726Z,91.10
2019-03-15T10:23:41.114Z,91.40
2019-03-15T10:26:08.532Z,91.90
2019-03-15T10:28:35.928Z,91.80
2019-03-15T10:31:04.468Z,92.50
2019-03-15T10:33:31.856Z,92.20
2019-03-15T10:35:59.132Z,92.40
2019-03-15T10:38:26.550Z,92.20
2019-03-15T10:40:53.900Z,92.70
2019-03-15T10:43:21.426Z,92.70
2019-03-15T10:45:48.760Z,92.60
2019-03-15T10:48:24.994Z,92.30
2019-03-15T10:51:04.714Z,92.20
2019-03-15T10:53:32.099Z,92.50
2019-03-15T10:56:00.712Z,92.30
2019-03-15T10:58:28.339Z,92.00
2019-03-15T11:00:56.866Z,92.20
2019-03-15T11:03:24.288Z,92.10
2019-03-15T11:05:51.602Z,92.20
2019-03-15T11:08:19.000Z,92.40
2019-03-15T11:10:46.282Z,92.10
2019-03-15T11:13:13.569Z,92.30
2019-03-15T11:15:40.999Z,92.30
2019-03-15T11:18:08.403Z,92.60
2019-03-15T11:20:35.697Z,92.50
2019-03-15T11:23:03.020Z,92.60
2019-03-15T11:25:30.440Z,92.70
2019-03-15T11:27:57.786Z,92.40
2019-03-15T11:30:25.238Z,92.60
2019-03-15T11:32:52.557Z,92.80
2019-03-15T11:35:39.513Z,92.80
2019-03-15T11:38:06.946Z,92.50
2019-03-15T11:40:37.804Z,92.70
2019-03-15T11:43:05.528Z,92.50
2019-03-15T11:45:32.884Z,92.70
2019-03-15T11:48:03.873Z,92.90
2019-03-15T11:50:29.526Z,93.00
2019-03-15T11:52:56.839Z,93.10
2019-03-15T11:55:24.240Z,93.10
2019-03-15T11:57:51.669Z,93.70
2019-03-15T12:00:19.007Z,93.80
2019-03-15T12:02:46.511Z,93.80
2019-03-15T12:05:14.236Z,94.10
2019-03-15T12:07:41.652Z,94.50
2019-03-15T12:10:09.139Z,94.50
2019-03-15T12:12:36.620Z,94.60
2019-03-15T12:15:05.113Z,94.50
2019-03-15T12:17:32.600Z,94.50
2019-03-15T12:19:59.998Z,94.70
2019-03-15T12:22:27.364Z,94.20
2019-03-15T12:24:54.702Z,94.70
2019-03-15T12:27:22.167Z,95.10
2019-03-15T12:29:49.835Z,95.00
2019-03-15T12:32:17.263Z,95.00
2019-03-15T12:34:44.618Z,94.90
2019-03-15T12:37:12.229Z,95.00
2019-03-15T12:39:40.041Z,94.90
2019-03-15T12:42:08.889Z,94.90
2019-03-15T12:44:36.381Z,95.00
2019-03-15T12:47:06.155Z,94.90
2019-03-15T12:49:34.988Z,94.90
2019-03-15T12:52:02.386Z,94.70
2019-03-15T12:54:29.775Z,95.50
2019-03-15T12:56:58.238Z,95.90
2019-03-15T12:59:26.660Z,96.20
2019-03-15T13:01:54.035Z,96.60
2019-03-15T13:04:22.424Z,96.80
2019-03-15T13:06:49.868Z,96.80
2019-03-15T13:09:17.203Z,96.60
2019-03-15T13:11:44.646Z,96.00
2019-03-15T13:14:12.163Z,95.70
2019-03-15T13:16:39.525Z,95.90
2019-03-15T13:19:06.849Z,96.00
2019-03-15T13:21:34.403Z,95.60
2019-03-15T13:24:01.833Z,95.40
2019-03-15T13:26:29.234Z,95.20
2019-03-15T13:28:56.673Z,94.80
2019-03-15T13:31:24.278Z,94.10
2019-03-15T13:33:51.738Z,93.80
2019-03-15T13:36:19.195Z,93.20
2019-03-15T13:38:46.649Z,92.80
2019-03-15T13:41:15.324Z,92.50
2019-03-15T13:43:42.897Z,92.10
2019-03-15T13:48:37.643Z,91.50
2019-03-15T13:51:07.398Z,91.30
2019-03-15T13:53:34.965Z,90.90
2019-03-15T13:56:02.527Z,90.80
2019-03-15T13:58:30.135Z,90.10
2019-03-15T14:00:57.658Z,90.00
2019-03-15T14:03:25.134Z,90.00
2019-03-15T14:05:54.040Z,90.20
2019-03-15T14:08:21.364Z,90.00
2019-03-15T14:10:49.898Z,90.10
2019-03-15T14:13:17.364Z,90.00
2019-03-15T14:15:44.893Z,90.00
2019-03-15T14:18:12.271Z,88.10
2019-03-15T14:20:39.706Z,88.80
2019-03-15T14:23:07.123Z,90.10
2019-03-15T14:25:34.488Z,90.10
2019-03-15T14:28:01.900Z,90.40
2019-03-15T14:30:29.272Z,90.40
2019-03-15T14:32:56.716Z,90.50
2019-03-15T14:35:24.085Z,90.60
2019-03-15T14:37:51.420Z,90.60
2019-03-15T14:40:18.758Z,90.60
2019-03-15T14:45:26.941Z,92.10
2019-03-15T14:47:54.306Z,92.50
2019-03-15T14:50:21.612Z,92.50
2019-03-15T14:52:49.154Z,92.40
2019-03-15T14:55:16.600Z,92.50
2019-03-15T14:58:03.656Z,92.40
2019-03-15T15:00:31.136Z,92.20
2019-03-15T15:02:58.455Z,92.10
2019-03-15T15:05:25.865Z,92.10
2019-03-15T15:07:53.168Z,92.20
2019-03-15T15:10:20.740Z,91.90
2019-03-15T15:12:48.150Z,92.00
2019-03-15T15:15:15.673Z,92.10
2019-03-15T15:17:43.170Z,92.50
2019-03-15T15:20:11.782Z,92.70
2019-03-15T15:22:40.592Z,92.90
2019-03-15T15:25:09.958Z,93.00
2019-03-15T15:27:37.230Z,92.00
2019-03-15T15:30:05.191Z,91.50
2019-03-15T15:32:32.610Z,91.80
2019-03-15T15:35:00.018Z,92.90
2019-03-15T15:37:27.454Z,93.70
2019-03-15T15:39:55.966Z,93.80
2019-03-15T15:42:23.256Z,94.10
2019-03-15T15:44:50.541Z,94.20
2019-03-15T15:47:17.980Z,93.60
2019-03-15T15:49:45.338Z,94.10
2019-03-15T15:52:12.662Z,94.30
2019-03-15T15:54:39.999Z,94.30
2019-03-15T15:57:07.519Z,94.40
2019-03-15T15:59:34.905Z,94.00
2019-03-15T16:02:02.460Z,94.00
2019-03-15T16:04:29.807Z,93.60
2019-03-15T16:06:57.154Z,93.20
2019-03-15T16:09:24.562Z,92.70
2019-03-15T16:11:52.087Z,92.10
2019-03-15T16:14:19.435Z,91.70
2019-03-15T16:16:46.730Z,91.00
2019-03-15T16:19:14.064Z,91.10
2019-03-15T16:21:41.429Z,90.60
2019-03-15T16:24:08.723Z,90.50
2019-03-15T16:26:36.062Z,90.00
2019-03-15T16:29:03.457Z,90.00
2019-03-15T16:31:30.882Z,90.20
2019-03-15T16:33:58.215Z,90.00
2019-03-15T16:36:25.637Z,89.80
2019-03-15T16:38:54.009Z,89.30
2019-03-15T16:41:23.105Z,89.10
2019-03-15T16:43:50.523Z,87.70
2019-03-15T16:46:18.089Z,87.30
2019-03-15T16:48:45.415Z,87.00
2019-03-15T16:51:19.537Z,86.40
2019-03-15T16:53:42.101Z,85.60
2019-03-15T16:56:10.529Z,85.40
2019-03-15T16:58:45.429Z,85.00
2019-03-15T17:01:07.380Z,84.30
2019-03-15T17:03:37.602Z,84.00
2019-03-15T17:06:06.471Z,83.20
2019-03-15T17:08:37.750Z,84.10
2019-03-15T17:11:05.383Z,83.20
2019-03-15T17:13:32.864Z,83.70
2019-03-15T17:16:00.340Z,83.00
2019-03-15T17:18:27.772Z,83.70
2019-03-15T17:20:55.161Z,84.50
2019-03-15T17:23:22.570Z,84.60
2019-03-15T17:25:49.966Z,83.40
2019-03-15T17:28:17.382Z,83.80
2019-03-15T17:30:44.693Z,82.30
2019-03-15T17:33:12.920Z,82.10
2019-03-15T17:35:40.232Z,81.40
2019-03-15T17:38:07.547Z,80.80
2019-03-15T17:40:34.806Z,80.70
2019-03-15T17:43:02.602Z,82.00
2019-03-15T17:45:29.954Z,81.20
2019-03-15T17:47:57.388Z,81.10
2019-03-15T17:50:24.733Z,81.30
2019-03-15T17:52:52.097Z,81.30
2019-03-15T17:55:19.699Z,81.60
2019-03-15T17:57:47.075Z,82.00
2019-03-15T18:00:24.254Z,81.40
2019-03-15T18:02:51.667Z,80.80
2019-03-15T18:05:19.059Z,81.40
2019-03-15T18:07:46.432Z,81.70
2019-03-15T18:10:13.980Z,81.30
2019-03-15T18:12:41.405Z,81.00
2019-03-15T18:15:08.892Z,80.80
2019-03-15T18:17:36.143Z,79.80
2019-03-15T18:20:06.586Z,79.30
2019-03-15T18:22:34.811Z,78.50
2019-03-15T18:25:06.564Z,77.40
2019-03-15T18:27:35.054Z,77.80
2019-03-15T18:30:03.871Z,77.30
2019-03-15T18:32:31.402Z,76.80
2019-03-15T18:34:58.989Z,76.10
2019-03-15T18:37:26.381Z,75.20
2019-03-15T18:39:54.426Z,75.30
2019-03-15T18:42:25.887Z,74.80
2019-03-15T18:44:53.296Z,74.30
2019-03-15T18:47:20.720Z,73.20
2019-03-15T18:49:50.143Z,71.30
2019-03-15T18:52:17.627Z,71.30
2019-03-15T18:54:45.033Z,70.30
2019-03-15T18:57:12.579Z,69.20
2019-03-15T18:59:40.603Z,69.40
2019-03-15T19:02:08.071Z,68.70
2019-03-15T19:04:35.629Z,68.90
2019-03-15T19:07:07.740Z,68.80
2019-03-15T19:09:36.655Z,69.50
2019-03-15T19:12:04.312Z,68.90
2019-03-15T19:14:31.851Z,69.50
2019-03-15T19:16:59.338Z,69.50
2019-03-15T19:19:26.995Z,69.80
2019-03-15T19:21:54.706Z,70.10
2019-03-15T19:24:23.295Z,70.70
2019-03-15T19:26:51.910Z,70.70
2019-03-15T19:29:22.985Z,71.20
2019-03-15T19:31:50.626Z,70.90
2019-03-15T19:34:18.356Z,70.90
2019-03-15T19:36:46.907Z,71.10
2019-03-15T19:39:14.258Z,71.00
2019-03-15T19:41:41.703Z,71.20
2019-03-15T19:44:10.380Z,71.70
2019-03-15T19:46:37.935Z,71.00
2019-03-15T19:49:06.755Z,71.30
2019-03-15T19:51:34.371Z,71.60
2019-03-15T19:54:04.150Z,72.10
2019-03-15T19:56:31.707Z,71.20
2019-03-15T19:59:03.212Z,71.40
2019-03-15T20:01:31.191Z,70.70
2019-03-15T20:03:59.010Z,70.00
2019-03-15T20:06:26.626Z,71.90
2019-03-15T20:08:54.289Z,69.90
2019-03-15T20:11:21.891Z,70.70
2019-03-15T20:13:49.549Z,71.10
2019-03-15T20:16:17.307Z,70.30
2019-03-15T20:18:44.775Z,69.80
2019-03-15T20:21:14.460Z,69.90
2019-03-15T20:23:54.560Z,69.90
2019-03-15T20:26:23.483Z,70.40
2019-03-15T20:28:50.913Z,70.30
2019-03-15T20:31:18.324Z,68.90
2019-03-15T20:33:46.838Z,69.30
2019-03-15T20:36:14.372Z,69.40
2019-03-15T20:38:41.850Z,69.30
2019-03-15T20:41:09.430Z,69.80
2019-03-15T20:43:36.814Z,69.60
2019-03-15T20:46:06.280Z,69.30
2019-03-15T20:48:33.840Z,69.10
2019-03-15T20:51:01.339Z,68.50
2019-03-15T20:53:28.925Z,68.70
2019-03-15T20:55:56.407Z,69.00
2019-03-15T20:58:23.966Z,68.40
2019-03-15T21:00:52.306Z,67.90
2019-03-15T21:03:19.883Z,68.40
2019-03-15T21:05:50.011Z,68.20
2019-03-15T21:08:19.557Z,68.60
2019-03-15T21:10:51.269Z,69.10
2019-03-15T21:13:17.286Z,68.90
2019-03-15T21:15:44.602Z,69.40
2019-03-15T21:18:12.001Z,69.30
2019-03-15T21:20:39.596Z,69.90
2019-03-15T21:23:06.913Z,70.10
2019-03-15T21:25:35.473Z,69.60
2019-03-15T21:28:03.880Z,69.90
2019-03-15T21:30:31.299Z,70.20
2019-03-15T21:32:59.904Z,70.70
2019-03-15T21:35:27.231Z,70.90
2019-03-15T21:37:54.532Z,71.30
2019-03-15T21:40:23.128Z,71.80
2019-03-15T21:42:50.556Z,71.50
2019-03-15T21:45:18.103Z,72.00
2019-03-15T21:47:46.597Z,72.50
2019-03-15T21:50:13.880Z,72.20
2019-03-15T21:52:41.218Z,72.00
2019-03-15T21:55:08.550Z,72.50
2019-03-15T21:57:35.971Z,72.70
2019-03-15T22:00:04.030Z,72.20
2019-03-15T22:02:32.988Z,72.30
2019-03-15T22:05:00.426Z,72.90
2019-03-15T22:07:27.972Z,73.20
2019-03-15T22:09:55.511Z,73.20
2019-03-15T22:12:24.159Z,72.90
2019-03-15T22:14:51.554Z,73.00
2019-03-15T22:17:18.825Z,73.10
2019-03-15T22:19:46.155Z,73.40
2019-03-15T22:22:14.686Z,73.80
2019-03-15T22:24:42.004Z,74.10
2019-03-15T22:27:09.396Z,73.80
2019-03-15T22:29:36.878Z,74.00
2019-03-15T22:32:04.347Z,73.80
2019-03-15T22:34:31.973Z,73.80
2019-03-15T22:36:59.694Z,74.00
2019-03-15T22:39:27.195Z,73.80
2019-03-15T22:41:54.493Z,73.70
2019-03-15T22:44:21.883Z,73.90
2019-03-15T22:46:49.442Z,73.90
2019-03-15T22:49:16.843Z,73.30
2019-03-15T22:51:44.287Z,73.70
2019-03-15T22:54:11.639Z,73.50
2019-03-15T22:56:39.089Z,73.80
2019-03-15T22:59:06.355Z,73.50
2019-03-15T23:01:33.900Z,73.20
2019-03-15T23:04:01.353Z,73.30
2019-03-15T23:06:28.936Z,73.30
2019-03-15T23:08:56.245Z,73.60
2019-03-15T23:11:23.597Z,73.20
2019-03-15T23:13:51.028Z,72.70
2019-03-15T23:16:18.563Z,72.90
2019-03-15T23:18:45.993Z,73.00
2019-03-15T23:21:13.418Z,73.10
2019-03-15T23:23:40.767Z,73.30
2019-03-15T23:26:08.052Z,73.60
2019-03-15T23:28:35.483Z,72.90
2019-03-15T23:31:02.931Z,72.60
2019-03-15T23:33:30.635Z,72.30
2019-03-15T23:35:57.977Z,72.20
2019-03-15T23:38:26.537Z,72.10
2019-03-15T23:40:54.123Z,72.00
2019-03-15T23:43:24.351Z,71.70
2019-03-15T23:45:51.711Z,71.80
2019-03-15T23:48:22.049Z,71.40
2019-03-15T23:50:49.619Z,71.00
2019-03-15T23:53:17.042Z,71.10
2019-03-15T23:55:44.370Z,71.20
2019-03-15T23:58:11.786Z,71.00
